createdAt,value
2018-03-06T00:01:47.214Z,10.20
2018-03-06T00:04:14.929Z,10.97
2018-03-06T00:06:42.470Z,10.37
2018-03-06T00:09:09.989Z,7.40
2018-03-06T00:11:37.507Z,9.40
2018-03-06T00:14:05.619Z,10.93
2018-03-06T00:16:33.199Z,9.73
2018-03-06T00:19:00.885Z,9.20
2018-03-06T00:21:28.495Z,11.13
2018-03-06T00:23:56.073Z,10.37
2018-03-06T00:26:24.463Z,9.30
2018-03-06T00:28:53.139Z,8.30
2018-03-06T00:31:20.792Z,10.90
2018-03-06T00:33:48.358Z,9.10
2018-03-06T00:36:15.900Z,11.93
2018-03-06T00:38:43.568Z,5.83
2018-03-06T00:41:11.177Z,7.50
2018-03-06T00:43:38.749Z,6.33
2018-03-06T00:46:06.371Z,10.50
2018-03-06T00:48:33.964Z,8.67
2018-03-06T00:51:01.511Z,7.85
2018-03-06T00:53:29.070Z,6.27
2018-03-06T00:55:56.640Z,8.57
2018-03-06T00:58:24.234Z,11.70
2018-03-06T01:00:51.983Z,10.00
2018-03-06T01:03:19.501Z,7.53
2018-03-06T01:05:47.046Z,6.97
2018-03-06T01:08:14.681Z,12.87
2018-03-06T01:10:42.248Z,5.23
2018-03-06T01:13:09.866Z,7.30
2018-03-06T01:15:37.448Z,5.40
2018-03-06T01:18:05.030Z,6.97
2018-03-06T01:20:32.611Z,8.20
2018-03-06T01:23:00.428Z,7.33
2018-03-06T01:25:28.017Z,7.93
2018-03-06T01:27:55.672Z,8.93
2018-03-06T01:30:23.278Z,7.37
2018-03-06T01:32:50.847Z,8.47
2018-03-06T01:35:18.441Z,7.53
2018-03-06T01:37:45.988Z,11.40
2018-03-06T01:40:13.545Z,8.20
2018-03-06T01:42:41.095Z,6.70
2018-03-06T01:45:08.637Z,8.57
2018-03-06T01:47:36.225Z,9.50
2018-03-06T01:50:03.856Z,8.13
2018-03-06T01:52:31.470Z,8.47
2018-03-06T01:54:59.104Z,11.17
2018-03-06T01:57:26.685Z,8.43
2018-03-06T01:59:54.232Z,7.93
2018-03-06T02:02:21.799Z,7.60
2018-03-06T02:04:49.384Z,6.50
2018-03-06T02:07:16.950Z,6.70
2018-03-06T02:09:44.529Z,9.20
2018-03-06T02:12:12.111Z,8.70
2018-03-06T02:14:39.851Z,8.33
2018-03-06T02:17:07.430Z,10.20
2018-03-06T02:19:34.997Z,7.77
2018-03-06T02:22:02.536Z,5.90
2018-03-06T02:24:30.073Z,6.50
2018-03-06T02:26:57.696Z,6.30
2018-03-06T02:29:25.233Z,7.37
2018-03-06T02:31:52.827Z,7.83
2018-03-06T02:34:20.673Z,8.00
2018-03-06T02:36:48.224Z,10.63
2018-03-06T02:39:15.934Z,10.00
2018-03-06T02:41:43.501Z,18.73
2018-03-06T02:44:11.070Z,12.50
2018-03-06T15:26:01.250Z,19.27
2018-03-06T15:28:28.795Z,26.00
2018-03-06T15:30:56.354Z,28.60
2018-03-06T15:33:23.953Z,33.10
2018-03-06T15:35:51.525Z,21.93
2018-03-06T15:38:19.065Z,36.80
2018-03-06T15:40:46.609Z,25.87
2018-03-06T15:43:14.177Z,30.13
2018-03-06T15:45:41.726Z,35.93
2018-03-06T15:48:09.339Z,43.70
2018-03-06T15:50:36.880Z,46.67
2018-03-06T15:53:04.433Z,31.63
2018-03-06T15:55:32.091Z,26.73
2018-03-06T15:57:59.627Z,41.10
2018-03-06T16:00:27.201Z,27.53
2018-03-06T16:02:54.718Z,31.10
2018-03-06T16:05:22.249Z,30.87
2018-03-06T16:07:49.770Z,30.93
2018-03-06T16:10:17.309Z,39.90
2018-03-06T16:12:44.840Z,39.87
2018-03-06T16:15:12.404Z,26.03
2018-03-06T16:17:39.909Z,27.27
2018-03-06T16:20:07.418Z,35.60
2018-03-06T16:22:34.960Z,34.80
2018-03-06T16:25:02.512Z,34.53
2018-03-06T16:27:30.035Z,40.30
2018-03-06T16:29:57.578Z,35.03
2018-03-06T16:32:25.108Z,51.30
2018-03-06T16:34:52.649Z,35.00
2018-03-06T16:37:20.168Z,37.00
2018-03-06T16:39:47.682Z,37.03
2018-03-06T16:42:15.219Z,29.00
2018-03-06T16:44:42.765Z,39.97
2018-03-06T16:47:10.320Z,45.47
2018-03-06T16:49:37.942Z,55.27
2018-03-06T16:52:05.562Z,49.90
2018-03-06T16:54:33.124Z,42.30
2018-03-06T16:57:00.691Z,28.73
2018-03-06T16:59:29.295Z,29.17
2018-03-06T17:01:56.827Z,25.47
2018-03-06T17:04:24.347Z,23.40
2018-03-06T17:06:51.924Z,25.20
2018-03-06T17:09:19.497Z,24.63
2018-03-06T17:11:47.181Z,25.90
2018-03-06T17:14:15.013Z,22.23
2018-03-06T17:16:42.666Z,17.73
2018-03-06T17:19:10.426Z,22.67
2018-03-06T17:21:37.988Z,20.23
2018-03-06T17:24:05.560Z,18.57
2018-03-06T17:26:33.135Z,19.10
2018-03-06T17:29:02.356Z,19.47
2018-03-06T17:31:29.955Z,24.37
2018-03-06T17:33:57.481Z,26.00
2018-03-06T17:36:25.053Z,30.13
2018-03-06T17:38:52.615Z,30.20
2018-03-06T17:41:21.111Z,23.47
2018-03-06T17:43:57.296Z,22.90
2018-03-06T17:46:25.181Z,22.70
2018-03-06T17:48:53.152Z,26.60
2018-03-06T17:51:20.956Z,26.47
2018-03-06T17:53:48.989Z,26.80
2018-03-06T17:56:16.662Z,26.63
2018-03-06T17:58:44.265Z,26.77
2018-03-06T18:01:11.831Z,30.20
2018-03-06T18:03:39.360Z,23.97
2018-03-06T18:06:07.048Z,26.70
2018-03-06T18:08:34.641Z,27.13
2018-03-06T18:11:02.188Z,20.50
2018-03-06T18:13:29.757Z,24.40
2018-03-06T18:15:57.268Z,29.93
2018-03-06T18:18:24.877Z,24.70
2018-03-06T18:20:52.429Z,23.30
2018-03-06T18:23:22.607Z,26.73
2018-03-06T18:25:50.210Z,25.60
2018-03-06T18:28:19.094Z,16.77
2018-03-06T18:30:46.821Z,25.10
2018-03-06T18:33:14.394Z,30.00
2018-03-06T18:35:41.933Z,25.60
2018-03-06T18:38:09.447Z,23.87
2018-03-06T18:40:37.644Z,27.93
2018-03-06T18:43:09.309Z,20.40
2018-03-06T18:45:40.032Z,16.50
2018-03-06T18:48:08.660Z,22.20
2018-03-06T18:50:59.771Z,22.40
2018-03-06T18:53:27.824Z,18.60
2018-03-06T18:55:58.507Z,22.57
2018-03-06T18:58:26.151Z,20.87
2018-03-06T19:01:19.444Z,22.77
2018-03-06T19:03:58.919Z,21.43
2018-03-06T19:06:36.174Z,23.83
2018-03-06T19:09:03.728Z,23.10
2018-03-06T19:11:31.298Z,23.27
2018-03-06T19:13:58.819Z,21.37
2018-03-06T19:16:26.353Z,20.13
2018-03-06T19:18:54.055Z,26.97
2018-03-06T19:21:21.624Z,33.87
2018-03-06T19:23:49.217Z,23.17
2018-03-06T19:26:17.622Z,18.17
2018-03-06T19:28:45.229Z,26.53
2018-03-06T19:31:12.982Z,24.70
2018-03-06T19:33:42.186Z,23.00
2018-03-06T19:36:10.576Z,23.00
2018-03-06T19:41:01.262Z,20.73
2018-03-06T19:43:29.091Z,23.33
2018-03-06T19:45:57.726Z,24.97
2018-03-06T19:48:26.246Z,16.93
2018-03-06T19:50:54.072Z,19.33
2018-03-06T19:53:21.796Z,17.40
2018-03-06T19:55:50.174Z,16.60
2018-03-06T19:58:18.439Z,17.10
2018-03-06T20:00:47.206Z,16.67
2018-03-06T20:03:15.059Z,19.60
2018-03-06T20:05:42.877Z,25.70
2018-03-06T20:08:11.462Z,17.87
2018-03-06T20:10:39.252Z,18.60
2018-03-06T20:13:08.117Z,19.70
2018-03-06T20:15:37.159Z,17.47
2018-03-06T20:18:05.133Z,18.10
2018-03-06T20:20:33.596Z,20.50
2018-03-06T20:23:01.362Z,19.57
2018-03-06T20:25:34.520Z,22.00
2018-03-06T20:28:02.498Z,19.07
2018-03-06T20:30:35.705Z,17.67
2018-03-06T20:33:08.768Z,19.10
2018-03-06T20:35:36.690Z,20.77
2018-03-06T20:38:04.789Z,23.07
2018-03-06T20:40:34.280Z,20.30
2018-03-06T20:43:01.869Z,20.33
2018-03-06T20:45:37.276Z,20.10
2018-03-06T20:48:04.987Z,18.73
2018-03-06T20:50:32.575Z,23.07
2018-03-06T20:56:05.399Z,24.17
2018-03-06T20:58:33.036Z,23.43
2018-03-06T21:01:00.597Z,27.20
2018-03-06T21:03:28.212Z,22.50
2018-03-06T21:05:55.794Z,18.93
2018-03-06T21:08:23.361Z,24.53
2018-03-06T21:10:50.906Z,20.00
2018-03-06T21:13:18.431Z,23.07
2018-03-06T21:15:46.078Z,23.53
2018-03-06T21:18:13.685Z,19.63
2018-03-06T21:20:42.225Z,22.13
2018-03-06T21:23:09.794Z,19.83
2018-03-06T21:25:37.806Z,16.60
2018-03-06T21:28:05.555Z,15.07
2018-03-06T21:30:33.151Z,13.50
2018-03-06T21:33:00.807Z,16.00
2018-03-06T21:35:29.579Z,16.17
2018-03-06T21:37:57.181Z,17.00
2018-03-06T21:40:25.880Z,15.00
2018-03-06T21:42:55.723Z,15.40
2018-03-06T21:45:23.315Z,14.40
2018-03-06T21:47:50.890Z,12.30
2018-03-06T21:50:18.670Z,17.53
2018-03-06T21:52:46.228Z,20.67
2018-03-06T21:55:13.744Z,16.93
2018-03-06T21:57:41.274Z,13.90
2018-03-06T22:00:08.904Z,13.63
2018-03-06T22:02:36.578Z,15.73
2018-03-06T22:05:04.374Z,16.50
2018-03-06T22:07:31.904Z,15.63
2018-03-06T22:09:59.545Z,16.80
2018-03-06T22:12:27.130Z,14.00
2018-03-06T22:14:54.651Z,19.20
2018-03-06T22:17:22.320Z,18.07
2018-03-06T22:19:49.884Z,22.70
2018-03-06T22:22:17.603Z,17.10
2018-03-06T22:24:45.205Z,16.80
2018-03-06T22:27:12.762Z,17.60
2018-03-06T22:29:40.357Z,16.77
2018-03-06T22:32:07.959Z,14.57
2018-03-06T22:34:35.553Z,15.63
2018-03-06T22:37:03.126Z,16.07
2018-03-06T22:39:30.654Z,10.90
2018-03-06T22:41:58.250Z,8.93
2018-03-06T22:44:25.808Z,13.00
2018-03-06T22:46:53.382Z,9.87
2018-03-06T22:49:20.966Z,10.17
2018-03-06T22:51:48.518Z,11.57
2018-03-06T22:54:16.098Z,16.23
2018-03-06T22:56:43.778Z,12.40
2018-03-06T22:59:11.313Z,11.27
2018-03-06T23:01:38.953Z,14.10
2018-03-06T23:04:06.522Z,12.10
2018-03-06T23:06:34.073Z,9.70
2018-03-06T23:09:01.615Z,11.43
2018-03-06T23:11:29.161Z,12.93
2018-03-06T23:13:56.725Z,10.87
2018-03-06T23:16:24.307Z,13.70
2018-03-06T23:18:51.818Z,12.07
2018-03-06T23:21:19.401Z,11.73
2018-03-06T23:23:46.977Z,18.10
2018-03-06T23:26:14.595Z,14.30
2018-03-06T23:28:42.142Z,12.40
2018-03-06T23:31:13.814Z,16.20
2018-03-06T23:33:41.540Z,13.90
2018-03-06T23:36:09.154Z,14.70
2018-03-06T23:38:36.681Z,16.07
2018-03-06T23:41:04.232Z,16.40
2018-03-06T23:43:31.905Z,15.13
2018-03-06T23:45:59.523Z,13.23
2018-03-06T23:48:27.077Z,15.03
2018-03-06T23:50:54.645Z,16.73
2018-03-06T23:53:22.208Z,12.57
2018-03-06T23:55:49.852Z,9.73
2018-03-06T23:58:17.413Z,16.17
